Time;durP1;ratioP1;P1;durP2;ratioP2;P2;SDS_P1;SDS_P2;PMS_P1;PMS_P2;Temp;Humidity;BMP_temperature;BMP_pressure;BME280_temperature;BME280_humidity;BME280_pressure;Samples;Min_cycle;Max_cycle;Signal;HPM_P1;HPM_P2
2022/04/05 00:00:27;;;;;;;;;;;;;;;;;;4978646;28;19928;-84
2022/04/05 00:02:55;;;;;;;;;;;;;;;;;;4978280;28;19925;-84
2022/04/05 00:05:22;;;;;;;;;;;;;;;;;;4978934;28;19932;-84
2022/04/05 00:07:49;;;;;;;;;;;;;;;;;;4978515;28;19922;-82
2022/04/05 00:10:16;;;;;;;;;;;;;;;;;;4978154;28;19926;-83
2022/04/05 00:12:44;;;;;;;;;;;;;;;;;;4977810;28;19921;-82
2022/04/05 00:15:11;;;;;;;;;;;;;;;;;;4994307;28;19991;-83
2022/04/05 00:17:38;;;;;;;;;;;;;;;;;;4993781;28;19926;-83
2022/04/05 00:20:06;;;;;;;;;;;;;;;;;;4977941;28;19926;-83
2022/04/05 00:22:34;;;;;;;;;;;;;;;;;;4977760;28;19992;-83
2022/04/05 00:25:01;;;;;;;;;;;;;;;;;;4978053;28;19961;-83
2022/04/05 00:27:28;;;;;;;;;;;;;;;;;;4978009;28;20421;-83
2022/04/05 00:29:56;;;;;;;;;;;;;;;;;;4993767;28;19925;-84
2022/04/05 00:32:23;;;;;;;;;;;;;;;;;;4977738;28;19928;-83
2022/04/05 00:34:50;;;;;;;;;;;;;;;;;;4977388;28;19922;-83
2022/04/05 00:37:18;;;;;;;;;;;;;;;;;;4994743;28;19932;-82
2022/04/05 00:39:45;;;;;;;;;;;;;;;;;;4977750;28;19922;-82
2022/04/05 00:42:12;;;;;;;;;;;;;;;;;;4993660;28;19944;-83
2022/04/05 00:44:40;;;;;;;;;;;;;;;;;;4977907;28;19926;-83
2022/04/05 00:47:07;;;;;;;;;;;;;;;;;;5009591;28;19922;-83
2022/04/05 00:49:34;;;;;;;;;;;;;;;;;;4961572;28;19921;-82
2022/04/05 00:52:01;;;;;;;;;;;;;;;;;;4977167;28;20362;-82
2022/04/05 00:54:29;;;;;;;;;;;;;;;;;;4961329;28;19922;-82
2022/04/05 00:56:56;;;;;;;;;;;;;;;;;;4961496;28;19952;-82
2022/04/05 00:59:23;;;;;;;;;;;;;;;;;;4977187;28;20377;-82
2022/04/05 01:01:51;;;;;;;;;;;;;;;;;;4977242;28;20293;-83
2022/04/05 01:04:18;;;;;;;;;;;;;;;;;;4977252;28;19922;-82
2022/04/05 01:06:45;;;;;;;;;;;;;;;;;;4960324;28;20482;-82
2022/04/05 01:09:13;;;;;;;;;;;;;;;;;;4976651;28;19929;-81
2022/04/05 01:11:40;;;;;;;;;;;;;;;;;;5009237;28;19921;-81
2022/04/05 01:14:08;;;;;;;;;;;;;;;;;;4960843;28;19928;-82
2022/04/05 01:16:36;;;;;;;;;;;;;;;;;;5009003;28;19968;-81
2022/04/05 01:19:06;;;;;;;;;;;;;;;;;;4961330;28;20672;-82
2022/04/05 01:21:33;;;;;;;;;;;;;;;;;;4992968;28;20357;-82
2022/04/05 01:24:01;;;;;;;;;;;;;;;;;;4960620;28;19926;-81
2022/04/05 01:26:28;;;;;;;;;;;;;;;;;;4960497;28;19921;-82
2022/04/05 01:28:55;;;;;;;;;;;;;;;;;;4960461;28;19937;-82
2022/04/05 01:31:22;;;;;;;;;;;;;;;;;;4976499;28;19994;-81
2022/04/05 01:33:50;;;;;;;;;;;;;;;;;;4960219;28;19922;-81
2022/04/05 01:36:17;;;;;;;;;;;;;;;;;;4960512;28;19922;-82
2022/04/05 01:38:44;;;;;;;;;;;;;;;;;;4960561;28;20358;-82
2022/04/05 01:41:11;;;;;;;;;;;;;;;;;;4976722;28;19926;-81
2022/04/05 01:43:40;;;;;;;;;;;;;;;;;;4976312;28;20370;-81
2022/04/05 01:46:07;;;;;;;;;;;;;;;;;;4960052;28;20012;-82
2022/04/05 01:48:35;;;;;;;;;;;;;;;;;;4960647;28;19922;-81
2022/04/05 01:51:02;;;;;;;;;;;;;;;;;;4960308;28;19922;-81
2022/04/05 01:53:29;;;;;;;;;;;;;;;;;;4960327;28;20008;-81
2022/04/05 01:55:56;;;;;;;;;;;;;;;;;;4976288;28;20382;-81
2022/04/05 01:58:25;;;;;;;;;;;;;;;;;;4976255;28;20359;-81
2022/04/05 02:00:52;;;;;;;;;;;;;;;;;;4976181;28;20345;-80
2022/04/05 02:03:19;;;;;;;;;;;;;;;;;;4976231;28;20016;-81
2022/04/05 02:05:50;;;;;;;;;;;;;;;;;;4976550;28;20436;-81
2022/04/05 02:08:17;;;;;;;;;;;;;;;;;;4960263;28;20355;-81
2022/04/05 02:10:45;;;;;;;;;;;;;;;;;;4992194;28;20024;-81
2022/04/05 02:13:12;;;;;;;;;;;;;;;;;;5008459;28;19922;-81
2022/04/05 02:15:44;;;;;;;;;;;;;;;;;;4961448;28;20388;-82
2022/04/05 02:18:12;;;;;;;;;;;;;;;;;;4976308;28;19984;-81
2022/04/05 02:20:42;;;;;;;;;;;;;;;;;;4976831;28;19929;-81
2022/04/05 02:23:09;;;;;;;;;;;;;;;;;;5008671;28;19973;-81
2022/04/05 02:25:59;;;;;;;;;;;;;;;;;;4966179;28;19976;-81
2022/04/05 02:28:31;;;;;;;;;;;;;;;;;;4976906;28;19922;-82
2022/04/05 02:31:03;;;;;;;;;;;;;;;;;;4976978;28;19926;-82
2022/04/05 02:33:34;;;;;;;;;;;;;;;;;;4961238;28;20374;-81
2022/04/05 02:36:07;;;;;;;;;;;;;;;;;;4961177;28;20297;-82
2022/04/05 02:38:36;;;;;;;;;;;;;;;;;;4960268;28;19929;-82
2022/04/05 02:41:06;;;;;;;;;;;;;;;;;;4963237;28;19922;-81
2022/04/05 02:43:34;;;;;;;;;;;;;;;;;;4979461;28;20020;-81
2022/04/05 02:46:03;;;;;;;;;;;;;;;;;;4979363;28;20004;-82
2022/04/05 02:48:32;;;;;;;;;;;;;;;;;;4995375;28;20012;-82
2022/04/05 02:51:02;;;;;;;;;;;;;;;;;;4995417;28;20365;-81
2022/04/05 02:53:30;;;;;;;;;;;;;;;;;;4980356;28;19965;-82
2022/04/05 02:55:57;;;;;;;;;;;;;;;;;;4979631;28;19926;-82
2022/04/05 02:58:25;;;;;;;;;;;;;;;;;;4979279;28;19928;-81
2022/04/05 03:00:52;;;;;;;;;;;;;;;;;;5011624;28;19922;-82
2022/04/05 03:03:20;;;;;;;;;;;;;;;;;;5011510;28;19943;-82
2022/04/05 03:05:51;;;;;;;;;;;;;;;;;;4979283;28;19923;-82
2022/04/05 03:08:22;;;;;;;;;;;;;;;;;;4978712;28;20024;-82
2022/04/05 03:10:50;;;;;;;;;;;;;;;;;;5011223;28;20002;-81
2022/04/05 03:13:17;;;;;;;;;;;;;;;;;;4995088;28;19921;-82
2022/04/05 03:15:46;;;;;;;;;;;;;;;;;;5011284;28;20286;-82
2022/04/05 03:18:14;;;;;;;;;;;;;;;;;;4978818;28;20357;-82
2022/04/05 03:20:41;;;;;;;;;;;;;;;;;;4978972;28;19921;-82
2022/04/05 03:23:09;;;;;;;;;;;;;;;;;;5011442;28;19926;-82
2022/04/05 03:25:36;;;;;;;;;;;;;;;;;;4979081;28;19922;-82
2022/04/05 03:28:04;;;;;;;;;;;;;;;;;;4978703;28;19929;-82
2022/04/05 03:30:34;;;;;;;;;;;;;;;;;;4994840;28;20024;-82
2022/04/05 03:33:04;;;;;;;;;;;;;;;;;;4978989;28;19922;-82
2022/04/05 03:35:32;;;;;;;;;;;;;;;;;;5010959;28;19926;-82
2022/04/05 03:37:59;;;;;;;;;;;;;;;;;;5011094;28;19921;-82
2022/04/05 03:40:28;;;;;;;;;;;;;;;;;;4978467;28;20305;-82
2022/04/05 03:42:57;;;;;;;;;;;;;;;;;;4994626;28;19925;-82
2022/04/05 03:45:25;;;;;;;;;;;;;;;;;;4978471;28;19926;-83
2022/04/05 03:47:53;;;;;;;;;;;;;;;;;;5010746;28;19925;-82
2022/04/05 03:50:20;;;;;;;;;;;;;;;;;;4994666;28;19928;-82
2022/04/05 03:52:48;;;;;;;;;;;;;;;;;;4977246;28;19928;-83
2022/04/05 03:55:26;;;;;;;;;;;;;;;;;;4978209;28;19972;-83
2022/04/05 03:57:54;;;;;;;;;;;;;;;;;;5011548;28;19922;-87
2022/04/05 04:00:22;;;;;;;;;;;;;;;;;;4979082;28;19925;-87
2022/04/05 04:03:01;;;;;;;;;;;;;;;;;;5009945;28;19928;-87
2022/04/05 04:05:28;;;;;;;;;;;;;;;;;;4979106;28;20715;-87
2022/04/05 04:07:56;;;;;;;;;;;;;;;;;;4979246;28;19922;-87
2022/04/05 04:10:24;;;;;;;;;;;;;;;;;;5011463;28;19927;-87
2022/04/05 04:12:55;;;;;;;;;;;;;;;;;;5010687;28;19928;-88
2022/04/05 04:15:25;;;;;;;;;;;;;;;;;;4978260;28;19922;-87
2022/04/05 04:17:53;;;;;;;;;;;;;;;;;;5011029;28;20027;-88
2022/04/05 04:20:21;;;;;;;;;;;;;;;;;;4979102;28;19968;-86
2022/04/05 04:22:49;;;;;;;;;;;;;;;;;;5012901;28;19922;-86
2022/04/05 04:25:16;;;;;;;;;;;;;;;;;;4980281;28;19929;-87
2022/04/05 04:27:43;;;;;;;;;;;;;;;;;;5012956;28;19928;-86
2022/04/05 04:30:11;;;;;;;;;;;;;;;;;;5012392;28;19965;-87
2022/04/05 04:32:39;;;;;;;;;;;;;;;;;;5011103;28;19925;-87
2022/04/05 04:35:07;;;;;;;;;;;;;;;;;;5011295;28;20013;-87
2022/04/05 04:37:34;;;;;;;;;;;;;;;;;;5010596;28;19921;-88
2022/04/05 04:40:02;;;;;;;;;;;;;;;;;;4978707;28;19921;-88
2022/04/05 04:42:29;;;;;;;;;;;;;;;;;;5011724;28;19933;-87
2022/04/05 04:44:56;;;;;;;;;;;;;;;;;;4979036;28;19953;-88
2022/04/05 04:47:23;;;;;;;;;;;;;;;;;;5011533;28;19922;-87
2022/04/05 04:49:51;;;;;;;;;;;;;;;;;;4978960;28;19921;-88
2022/04/05 04:52:21;;;;;;;;;;;;;;;;;;5010312;28;19926;-88
2022/04/05 04:54:48;;;;;;;;;;;;;;;;;;5011063;28;20012;-88
2022/04/05 04:57:16;;;;;;;;;;;;;;;;;;5010632;28;19921;-88
2022/04/05 04:59:43;;;;;;;;;;;;;;;;;;5010711;28;20384;-88
2022/04/05 05:02:11;;;;;;;;;;;;;;;;;;5010776;28;20385;-88
2022/04/05 05:04:38;;;;;;;;;;;;;;;;;;4999095;28;19955;-87
2022/04/05 05:07:08;;;;;;;;;;;;;;;;;;4978407;28;19921;-88
2022/04/05 05:09:35;;;;;;;;;;;;;;;;;;4977719;28;19925;-88
2022/04/05 05:12:03;;;;;;;;;;;;;;;;;;4977906;28;19922;-87
2022/04/05 05:14:30;;;;;;;;;;;;;;;;;;4978193;28;20441;-87
2022/04/05 05:16:57;;;;;;;;;;;;;;;;;;4961962;28;20016;-87
2022/04/05 05:19:25;;;;;;;;;;;;;;;;;;4994075;28;19956;-87
2022/04/05 05:21:52;;;;;;;;;;;;;;;;;;4978035;28;20350;-88
2022/04/05 05:24:19;;;;;;;;;;;;;;;;;;4977854;28;19921;-88
2022/04/05 05:26:47;;;;;;;;;;;;;;;;;;4961796;28;19922;-88
2022/04/05 05:29:15;;;;;;;;;;;;;;;;;;4962323;28;19926;-89
2022/04/05 05:31:42;;;;;;;;;;;;;;;;;;4977814;28;19929;-88
2022/04/05 05:34:10;;;;;;;;;;;;;;;;;;4977761;28;20332;-88
2022/04/05 05:36:37;;;;;;;;;;;;;;;;;;4977768;28;20366;-88
2022/04/05 05:39:04;;;;;;;;;;;;;;;;;;4993696;28;20008;-88
2022/04/05 05:41:31;;;;;;;;;;;;;;;;;;4977692;28;19928;-88
2022/04/05 05:43:59;;;;;;;;;;;;;;;;;;4977195;28;19922;-88
2022/04/05 05:46:26;;;;;;;;;;;;;;;;;;4974376;28;19929;-88
2022/04/05 05:48:53;;;;;;;;;;;;;;;;;;4974300;28;19994;-88
2022/04/05 05:51:21;;;;;;;;;;;;;;;;;;4957946;28;19985;-87
2022/04/05 05:53:51;;;;;;;;;;;;;;;;;;4974295;28;19922;-88
2022/04/05 05:56:18;;;;;;;;;;;;;;;;;;4957745;28;19945;-88
2022/04/05 05:58:50;;;;;;;;;;;;;;;;;;4958143;28;19922;-88
2022/04/05 06:01:17;;;;;;;;;;;;;;;;;;4974293;28;19922;-88
2022/04/05 06:03:45;;;;;;;;;;;;;;;;;;4957959;28;19945;-87
2022/04/05 06:06:12;;;;;;;;;;;;;;;;;;4958107;28;19929;-87
2022/04/05 06:08:40;;;;;;;;;;;;;;;;;;4990276;28;19926;-87
2022/04/05 06:11:08;;;;;;;;;;;;;;;;;;4973660;28;19977;-90
2022/04/05 06:13:35;;;;;;;;;;;;;;;;;;4957926;28;19976;-86
2022/04/05 06:16:02;;;;;;;;;;;;;;;;;;4960598;28;20412;-86
2022/04/05 06:18:30;;;;;;;;;;;;;;;;;;4961624;28;19922;-87
2022/04/05 06:20:57;;;;;;;;;;;;;;;;;;4977795;28;19929;-87
2022/04/05 06:23:27;;;;;;;;;;;;;;;;;;4961367;28;20293;-88
2022/04/05 06:25:59;;;;;;;;;;;;;;;;;;4978258;28;19945;-89
2022/04/05 06:28:26;;;;;;;;;;;;;;;;;;4977539;28;19922;-89
2022/04/05 06:30:54;;;;;;;;;;;;;;;;;;4993723;28;19926;-89
2022/04/05 06:33:24;;;;;;;;;;;;;;;;;;4977601;28;19955;-89
2022/04/05 06:35:52;;;;;;;;;;;;;;;;;;4993806;28;19926;-88
2022/04/05 06:38:19;;;;;;;;;;;;;;;;;;4961204;28;19938;-87
2022/04/05 06:40:47;;;;;;;;;;;;;;;;;;4977264;28;19926;-87
2022/04/05 06:43:14;;;;;;;;;;;;;;;;;;4961105;28;19926;-87
2022/04/05 06:45:42;;;;;;;;;;;;;;;;;;4977172;28;20263;-88
2022/04/05 06:48:12;;;;;;;;;;;;;;;;;;4977206;28;20297;-87
2022/04/05 06:50:39;;;;;;;;;;;;;;;;;;4960815;28;19973;-87
2022/04/05 06:53:06;;;;;;;;;;;;;;;;;;4961237;28;19922;-87
2022/04/05 06:55:34;;;;;;;;;;;;;;;;;;4993152;28;19934;-86
2022/04/05 06:58:01;;;;;;;;;;;;;;;;;;4977148;28;19922;-87
2022/04/05 07:00:29;;;;;;;;;;;;;;;;;;4993342;28;20028;-88
2022/04/05 07:02:56;;;;;;;;;;;;;;;;;;4993023;28;19922;-87
2022/04/05 07:05:24;;;;;;;;;;;;;;;;;;4976752;28;19922;-87
2022/04/05 07:07:51;;;;;;;;;;;;;;;;;;4976652;28;20397;-87
2022/04/05 07:10:18;;;;;;;;;;;;;;;;;;4976709;28;19929;-87
2022/04/05 07:12:46;;;;;;;;;;;;;;;;;;4977879;28;20368;-88
2022/04/05 07:15:13;;;;;;;;;;;;;;;;;;4993037;28;19922;-90
2022/04/05 07:17:40;;;;;;;;;;;;;;;;;;4960852;28;19928;-90
2022/04/05 07:20:28;;;;;;;;;;;;;;;;;;4976528;28;19922;-88
2022/04/05 07:22:55;;;;;;;;;;;;;;;;;;4976514;28;20330;-89
2022/04/05 07:25:23;;;;;;;;;;;;;;;;;;4960966;28;20018;-88
2022/04/05 07:27:51;;;;;;;;;;;;;;;;;;4976922;28;19922;-88
2022/04/05 07:30:18;;;;;;;;;;;;;;;;;;4965077;28;19922;-90
2022/04/05 07:32:48;;;;;;;;;;;;;;;;;;4981063;28;19922;-90
2022/04/05 07:35:16;;;;;;;;;;;;;;;;;;4965254;28;19922;-90
2022/04/05 07:37:43;;;;;;;;;;;;;;;;;;4980619;28;19926;-90
2022/04/05 07:40:13;;;;;;;;;;;;;;;;;;4993572;28;19929;-90
2022/04/05 07:42:41;;;;;;;;;;;;;;;;;;4960540;28;19922;-91
2022/04/05 07:45:08;;;;;;;;;;;;;;;;;;4976615;28;20017;-90
2022/04/05 07:47:35;;;;;;;;;;;;;;;;;;4959912;28;19929;-90
2022/04/05 07:50:03;;;;;;;;;;;;;;;;;;4959920;28;19921;-90
2022/04/05 07:52:30;;;;;;;;;;;;;;;;;;4960292;28;20351;-90
2022/04/05 07:54:57;;;;;;;;;;;;;;;;;;4992403;28;19961;-90
2022/04/05 07:57:25;;;;;;;;;;;;;;;;;;4976006;28;19989;-91
2022/04/05 07:59:52;;;;;;;;;;;;;;;;;;4976095;28;19922;-90
2022/04/05 08:02:19;;;;;;;;;;;;;;;;;;4960432;28;19922;-91
2022/04/05 08:04:55;;;;;;;;;;;;;;;;;;4992670;28;19932;-90
2022/04/05 08:07:22;;;;;;;;;;;;;;;;;;4959712;28;20453;-86
2022/04/05 08:09:49;;;;;;;;;;;;;;;;;;4959424;28;19930;-87
2022/04/05 08:12:17;;;;;;;;;;;;;;;;;;4991904;28;20021;-89
2022/04/05 08:14:45;;;;;;;;;;;;;;;;;;4991589;28;19929;-86
2022/04/05 08:17:12;;;;;;;;;;;;;;;;;;4975099;28;20413;-88
2022/04/05 08:19:39;;;;;;;;;;;;;;;;;;4977139;28;20025;-87
2022/04/05 08:22:08;;;;;;;;;;;;;;;;;;4971349;28;19929;-88
2022/04/05 08:24:35;;;;;;;;;;;;;;;;;;4959510;28;20385;-88
2022/04/05 08:27:05;;;;;;;;;;;;;;;;;;4975486;28;19922;-89
2022/04/05 08:29:39;;;;;;;;;;;;;;;;;;4975268;28;19994;-89
2022/04/05 08:32:07;;;;;;;;;;;;;;;;;;4959072;28;20298;-89
2022/04/05 08:34:35;;;;;;;;;;;;;;;;;;4991323;28;19925;-89
2022/04/05 08:37:02;;;;;;;;;;;;;;;;;;4991156;28;20378;-88
2022/04/05 08:39:29;;;;;;;;;;;;;;;;;;4958605;28;19929;-88
2022/04/05 08:41:57;;;;;;;;;;;;;;;;;;4991139;28;19926;-88
2022/04/05 08:44:24;;;;;;;;;;;;;;;;;;4975272;28;19926;-88
2022/04/05 08:46:52;;;;;;;;;;;;;;;;;;4963557;28;19921;-88
2022/04/05 08:49:19;;;;;;;;;;;;;;;;;;4978256;28;19925;-88
2022/04/05 08:51:46;;;;;;;;;;;;;;;;;;4978046;28;19921;-88
2022/04/05 08:54:13;;;;;;;;;;;;;;;;;;4994690;28;19938;-87
2022/04/05 08:56:41;;;;;;;;;;;;;;;;;;4978555;28;19922;-86
2022/04/05 08:59:08;;;;;;;;;;;;;;;;;;4978271;28;19921;-87
2022/04/05 09:01:35;;;;;;;;;;;;;;;;;;4974944;28;20017;-87
2022/04/05 09:04:04;;;;;;;;;;;;;;;;;;4977291;28;19929;-86
2022/04/05 09:06:31;;;;;;;;;;;;;;;;;;4976757;28;19930;-87
2022/04/05 09:08:58;;;;;;;;;;;;;;;;;;4993885;28;20279;-88
2022/04/05 09:11:27;;;;;;;;;;;;;;;;;;5010460;28;19922;-88
2022/04/05 09:13:54;;;;;;;;;;;;;;;;;;4994462;28;19928;-86
2022/04/05 09:16:21;;;;;;;;;;;;;;;;;;4978399;28;19921;-88
2022/04/05 09:18:49;;;;;;;;;;;;;;;;;;4994165;28;19922;-87
2022/04/05 09:21:16;;;;;;;;;;;;;;;;;;4993558;28;19928;-87
2022/04/05 09:23:52;;;;;;;;;;;;;;;;;;4993501;28;19925;-87
2022/04/05 09:26:19;;;;;;;;;;;;;;;;;;4977644;28;19925;-88
2022/04/05 09:28:47;;;;;;;;;;;;;;;;;;4994622;28;19921;-87
2022/04/05 09:31:17;;;;;;;;;;;;;;;;;;4994778;28;19989;-87
2022/04/05 09:33:47;;;;;;;;;;;;;;;;;;4994312;28;19928;-87
2022/04/05 09:36:16;;;;;;;;;;;;;;;;;;4977888;28;19972;-89
2022/04/05 09:38:43;;;;;;;;;;;;;;;;;;4977340;28;20277;-87
2022/04/05 09:41:10;;;;;;;;;;;;;;;;;;4977952;28;19921;-88
2022/04/05 09:43:38;;;;;;;;;;;;;;;;;;4977546;28;19925;-89
2022/04/05 09:46:05;;;;;;;;;;;;;;;;;;4977444;28;19925;-88
2022/04/05 09:48:33;;;;;;;;;;;;;;;;;;4977391;28;19922;-87
2022/04/05 09:51:02;;;;;;;;;;;;;;;;;;4996775;28;19921;-86
2022/04/05 09:53:29;;;;;;;;;;;;;;;;;;4981174;28;19921;-86
2022/04/05 09:55:57;;;;;;;;;;;;;;;;;;4997751;28;19922;-86
2022/04/05 09:58:24;;;;;;;;;;;;;;;;;;4981433;28;19929;-86
2022/04/05 10:00:51;;;;;;;;;;;;;;;;;;4981497;28;20330;-87
2022/04/05 10:03:19;;;;;;;;;;;;;;;;;;5014160;28;19933;-86
2022/04/05 10:05:47;;;;;;;;;;;;;;;;;;4981101;28;19969;-88
2022/04/05 10:08:15;;;;;;;;;;;;;;;;;;4981342;28;20266;-87
2022/04/05 10:10:42;;;;;;;;;;;;;;;;;;4997602;28;19921;-87
2022/04/05 10:13:10;;;;;;;;;;;;;;;;;;4997551;28;19922;-86
2022/04/05 10:15:37;;;;;;;;;;;;;;;;;;4980951;28;19922;-87
2022/04/05 10:18:06;;;;;;;;;;;;;;;;;;4980194;28;19921;-84
2022/04/05 10:20:33;;;;;;;;;;;;;;;;;;5013209;28;19926;-84
2022/04/05 10:23:02;;;;;;;;;;;;;;;;;;4996441;28;19988;-83
2022/04/05 10:25:30;;;;;;;;;;;;;;;;;;4980293;28;19944;-84
2022/04/05 10:27:57;;;;;;;;;;;;;;;;;;4980514;28;20310;-84
2022/04/05 10:30:25;;;;;;;;;;;;;;;;;;4979910;28;19977;-83
2022/04/05 10:32:53;;;;;;;;;;;;;;;;;;4980366;28;19928;-86
2022/04/05 10:35:20;;;;;;;;;;;;;;;;;;4980615;28;19929;-85
2022/04/05 10:37:47;;;;;;;;;;;;;;;;;;4981472;28;19925;-86
2022/04/05 10:40:15;;;;;;;;;;;;;;;;;;4980923;28;20374;-87
2022/04/05 10:42:42;;;;;;;;;;;;;;;;;;4980595;28;19993;-87
2022/04/05 10:45:10;;;;;;;;;;;;;;;;;;4980576;28;19926;-87
2022/04/05 10:47:37;;;;;;;;;;;;;;;;;;4979936;28;19921;-83
2022/04/05 10:50:25;;;;;;;;;;;;;;;;;;5012579;28;19925;-82
2022/04/05 10:52:55;;;;;;;;;;;;;;;;;;4997058;28;19925;-90
2022/04/05 10:55:22;;;;;;;;;;;;;;;;;;4980640;28;19953;-89
2022/04/05 10:57:50;;;;;;;;;;;;;;;;;;4980170;28;19953;-89
2022/04/05 11:00:17;;;;;;;;;;;;;;;;;;4980195;28;19962;-89
2022/04/05 11:02:45;;;;;;;;;;;;;;;;;;4980736;28;19925;-88
2022/04/05 11:05:18;;;;;;;;;;;;;;;;;;4997096;28;20028;-88
2022/04/05 11:07:46;;;;;;;;;;;;;;;;;;4980366;28;19921;-89
2022/04/05 11:10:13;;;;;;;;;;;;;;;;;;4980149;28;19925;-84
2022/04/05 11:12:42;;;;;;;;;;;;;;;;;;5012312;28;19921;-88
2022/04/05 11:15:12;;;;;;;;;;;;;;;;;;4980614;28;20389;-86
2022/04/05 11:17:39;;;;;;;;;;;;;;;;;;4980513;28;19922;-88
2022/04/05 11:20:07;;;;;;;;;;;;;;;;;;4980112;28;19960;-88
2022/04/05 11:22:38;;;;;;;;;;;;;;;;;;4980744;28;19976;-87
2022/04/05 11:25:08;;;;;;;;;;;;;;;;;;4996672;28;20020;-94
2022/04/05 11:28:23;;;;;;;;;;;;;;;;;;4917885;29;19919;-87
2022/04/05 11:30:52;;;;;;;;;;;;;;;;;;4921437;29;19963;-88
2022/04/05 11:33:28;;;;;;;;;;;;;;;;;;4905915;29;20059;-92
2022/04/05 11:35:56;;;;;;;;;;;;;;;;;;4904189;29;20021;-81
2022/04/05 11:38:25;;;;;;;;;;;;;;;;;;4904630;29;19926;-81
2022/04/05 11:40:53;;;;;;;;;;;;;;;;;;4904733;29;19923;-81
2022/04/05 11:43:24;;;;;;;;;;;;;;;;;;4920176;29;19922;-82
2022/04/05 11:45:52;;;;;;;;;;;;;;;;;;4919960;29;19927;-80
2022/04/05 11:48:19;;;;;;;;;;;;;;;;;;4918425;29;19923;-79
2022/04/05 11:50:47;;;;;;;;;;;;;;;;;;4914851;29;19937;-80
2022/04/05 11:53:14;;;;;;;;;;;;;;;;;;4901346;29;20323;-78
2022/04/05 11:58:28;;;;;;;;;;;;;;;;;;4917605;29;19923;-84
2022/04/05 12:00:56;;;;;;;;;;;;;;;;;;4929876;29;19934;-82
2022/04/05 12:03:23;;;;;;;;;;;;;;;;;;4914749;28;19979;-81
2022/04/05 12:05:51;;;;;;;;;;;;;;;;;;4956898;28;20299;-82
2022/04/05 12:08:18;;;;;;;;;;;;;;;;;;4972512;28;19926;-81
2022/04/05 12:10:45;;;;;;;;;;;;;;;;;;4972366;28;19925;-81
2022/04/05 12:13:12;;;;;;;;;;;;;;;;;;4987850;28;19950;-79
2022/04/05 12:15:40;;;;;;;;;;;;;;;;;;4940213;28;20020;-79
2022/04/05 12:18:07;;;;;;;;;;;;;;;;;;4967109;28;19921;-78
2022/04/05 12:20:34;;;;;;;;;;;;;;;;;;4975810;28;19926;-79
2022/04/05 12:23:01;;;;;;;;;;;;;;;;;;4975197;28;19972;-81
2022/04/05 12:25:29;;;;;;;;;;;;;;;;;;4991739;28;19941;-80
2022/04/05 12:27:57;;;;;;;;;;;;;;;;;;4975604;28;19949;-82
2022/04/05 12:30:25;;;;;;;;;;;;;;;;;;4975396;28;19921;-81
2022/04/05 12:32:52;;;;;;;;;;;;;;;;;;5008612;28;19929;-81
2022/04/05 12:35:19;;;;;;;;;;;;;;;;;;4993710;28;19926;-81
2022/04/05 12:37:46;;;;;;;;;;;;;;;;;;4994730;28;20068;-78
2022/04/05 12:40:17;;;;;;;;;;;;;;;;;;5010484;28;19921;-90
2022/04/05 12:42:46;;;;;;;;;;;;;;;;;;4977933;28;19928;-86
2022/04/05 12:45:13;;;;;;;;;;;;;;;;;;4978072;28;20024;-88
2022/04/05 12:47:41;;;;;;;;;;;;;;;;;;5010412;28;19922;-85
2022/04/05 12:50:08;;;;;;;;;;;;;;;;;;5011054;28;19928;-87
2022/04/05 12:52:36;;;;;;;;;;;;;;;;;;5011050;28;20365;-85
2022/04/05 12:55:03;;;;;;;;;;;;;;;;;;5010041;28;19971;-80
2022/04/05 12:57:30;;;;;;;;;;;;;;;;;;4993328;28;20330;-85
2022/04/05 12:59:57;;;;;;;;;;;;;;;;;;4993597;28;19922;-84
2022/04/05 13:02:28;;;;;;;;;;;;;;;;;;4993261;28;19922;-80
2022/04/05 13:06:19;;;;;;;;;;;;;;;;;;4994682;28;19929;-80
2022/04/05 13:07:42;;;;;;;;;;;;;;;;;;5008973;28;19925;-83
2022/04/05 13:10:10;;;;;;;;;;;;;;;;;;4992276;28;19969;-80
2022/04/05 13:12:37;;;;;;;;;;;;;;;;;;4993078;28;19926;-81
2022/04/05 13:15:04;;;;;;;;;;;;;;;;;;4992763;28;19922;-81
2022/04/05 13:17:32;;;;;;;;;;;;;;;;;;4992747;28;19930;-81
2022/04/05 13:19:59;;;;;;;;;;;;;;;;;;4994035;28;19991;-82
2022/04/05 13:22:26;;;;;;;;;;;;;;;;;;4992754;28;19921;-80
2022/04/05 13:24:53;;;;;;;;;;;;;;;;;;4984469;28;19972;-82
2022/04/05 13:27:21;;;;;;;;;;;;;;;;;;4992706;28;19929;-80
2022/04/05 13:29:48;;;;;;;;;;;;;;;;;;4976254;28;20350;-80
2022/04/05 13:32:18;;;;;;;;;;;;;;;;;;4992911;28;19957;-83
2022/04/05 13:34:45;;;;;;;;;;;;;;;;;;4993171;28;19925;-83
2022/04/05 13:37:12;;;;;;;;;;;;;;;;;;4976750;28;20011;-82
2022/04/05 13:39:39;;;;;;;;;;;;;;;;;;4976853;28;19925;-82
2022/04/05 13:42:08;;;;;;;;;;;;;;;;;;4976734;28;19922;-83
2022/04/05 13:44:36;;;;;;;;;;;;;;;;;;5008424;28;19969;-81
2022/04/05 13:47:03;;;;;;;;;;;;;;;;;;4976141;28;19968;-84
2022/04/05 13:49:31;;;;;;;;;;;;;;;;;;4992528;28;20369;-82
2022/04/05 13:51:58;;;;;;;;;;;;;;;;;;4993899;28;20267;-81
2022/04/05 13:54:48;;;;;;;;;;;;;;;;;;4979149;28;19922;-87
2022/04/05 13:57:20;;;;;;;;;;;;;;;;;;4977583;28;19965;-84
2022/04/05 13:59:48;;;;;;;;;;;;;;;;;;4977164;28;19922;-85
2022/04/05 14:02:17;;;;;;;;;;;;;;;;;;4977408;28;19925;-81
2022/04/05 14:04:46;;;;;;;;;;;;;;;;;;5009217;28;19926;-83
2022/04/05 14:07:14;;;;;;;;;;;;;;;;;;4993357;28;19925;-87
2022/04/05 14:09:42;;;;;;;;;;;;;;;;;;4974191;28;20017;-89
2022/04/05 14:12:14;;;;;;;;;;;;;;;;;;4973898;28;19929;-90
2022/04/05 14:14:41;;;;;;;;;;;;;;;;;;4943312;28;19922;-87
2022/04/05 14:17:08;;;;;;;;;;;;;;;;;;4974975;28;19922;-89
2022/04/05 14:19:38;;;;;;;;;;;;;;;;;;4977330;28;20382;-86
2022/04/05 14:22:05;;;;;;;;;;;;;;;;;;4960540;28;19968;-84
2022/04/05 14:24:33;;;;;;;;;;;;;;;;;;4976785;28;20366;-87
2022/04/05 14:27:00;;;;;;;;;;;;;;;;;;4989624;28;19953;-84
2022/04/05 14:29:27;;;;;;;;;;;;;;;;;;4991211;28;19929;-86
2022/04/05 14:31:55;;;;;;;;;;;;;;;;;;4993067;28;19953;-87
2022/04/05 14:34:22;;;;;;;;;;;;;;;;;;4976925;28;19928;-89
2022/04/05 14:36:50;;;;;;;;;;;;;;;;;;4979660;28;20038;-90
2022/04/05 14:39:18;;;;;;;;;;;;;;;;;;4980402;28;19926;-91
2022/04/05 14:41:54;;;;;;;;;;;;;;;;;;4981958;28;19930;-87
2022/04/05 14:44:22;;;;;;;;;;;;;;;;;;4980568;28;19928;-83
2022/04/05 14:46:50;;;;;;;;;;;;;;;;;;4979989;28;19922;-84
2022/04/05 14:49:17;;;;;;;;;;;;;;;;;;4996471;28;19929;-89
2022/04/05 14:51:50;;;;;;;;;;;;;;;;;;4980680;28;20293;-85
2022/04/05 14:54:17;;;;;;;;;;;;;;;;;;4980272;28;19929;-85
2022/04/05 14:56:45;;;;;;;;;;;;;;;;;;4996370;28;20301;-86
2022/04/05 14:59:23;;;;;;;;;;;;;;;;;;4982094;28;20406;-91
2022/04/05 15:01:51;;;;;;;;;;;;;;;;;;4997192;28;19972;-91
2022/04/05 15:04:19;;;;;;;;;;;;;;;;;;4996769;28;20686;-88
2022/04/05 15:06:52;;;;;;;;;;;;;;;;;;4981179;28;19977;-90
2022/04/05 15:09:19;;;;;;;;;;;;;;;;;;4964766;28;19921;-85
2022/04/05 15:11:48;;;;;;;;;;;;;;;;;;4980196;28;19968;-90
2022/04/05 15:14:16;;;;;;;;;;;;;;;;;;4996652;28;19929;-87
2022/04/05 15:16:43;;;;;;;;;;;;;;;;;;4995833;28;19921;-84
2022/04/05 15:19:11;;;;;;;;;;;;;;;;;;4996146;28;19921;-87
2022/04/05 15:21:38;;;;;;;;;;;;;;;;;;4996133;28;19980;-89
2022/04/05 15:24:05;;;;;;;;;;;;;;;;;;4996420;28;19926;-88
2022/04/05 15:26:33;;;;;;;;;;;;;;;;;;4980396;28;19940;-87
2022/04/05 15:29:00;;;;;;;;;;;;;;;;;;4979625;28;19921;-86
2022/04/05 15:31:27;;;;;;;;;;;;;;;;;;4979520;28;19925;-87
2022/04/05 15:33:55;;;;;;;;;;;;;;;;;;4978956;28;19972;-86
2022/04/05 15:36:22;;;;;;;;;;;;;;;;;;5012347;28;19961;-90
2022/04/05 15:38:50;;;;;;;;;;;;;;;;;;4996230;28;20015;-90
2022/04/05 15:41:17;;;;;;;;;;;;;;;;;;5012045;28;19921;-87
2022/04/05 15:43:45;;;;;;;;;;;;;;;;;;4999669;28;19953;-91
2022/04/05 15:46:12;;;;;;;;;;;;;;;;;;4979788;28;19922;-87
2022/04/05 15:48:40;;;;;;;;;;;;;;;;;;4979425;28;19956;-89
2022/04/05 15:51:07;;;;;;;;;;;;;;;;;;4979553;28;19969;-88
2022/04/05 15:53:35;;;;;;;;;;;;;;;;;;4995594;28;19921;-86
2022/04/05 15:56:02;;;;;;;;;;;;;;;;;;4979351;28;19925;-90
2022/04/05 15:58:29;;;;;;;;;;;;;;;;;;4965524;28;19988;-90
2022/04/05 16:00:57;;;;;;;;;;;;;;;;;;4981247;28;19976;-89
2022/04/05 16:03:26;;;;;;;;;;;;;;;;;;5013360;28;19921;-87
2022/04/05 16:05:54;;;;;;;;;;;;;;;;;;4980222;28;19957;-86
2022/04/05 16:08:23;;;;;;;;;;;;;;;;;;4981024;28;19922;-83
2022/04/05 16:10:50;;;;;;;;;;;;;;;;;;4996265;28;19926;-83
2022/04/05 16:13:18;;;;;;;;;;;;;;;;;;4980386;28;19929;-86
2022/04/05 16:15:45;;;;;;;;;;;;;;;;;;4979143;28;19928;-85
2022/04/05 16:18:13;;;;;;;;;;;;;;;;;;4995558;28;20004;-88
2022/04/05 16:20:40;;;;;;;;;;;;;;;;;;5011425;28;20045;-84
2022/04/05 16:23:08;;;;;;;;;;;;;;;;;;4979119;28;19922;-86
2022/04/05 16:25:35;;;;;;;;;;;;;;;;;;4978981;28;19921;-89
2022/04/05 16:28:03;;;;;;;;;;;;;;;;;;4978737;28;19925;-86
2022/04/05 16:30:30;;;;;;;;;;;;;;;;;;4978503;28;19922;-87
2022/04/05 16:32:59;;;;;;;;;;;;;;;;;;4978771;28;20374;-85
2022/04/05 16:35:26;;;;;;;;;;;;;;;;;;4978833;28;19921;-85
2022/04/05 16:37:53;;;;;;;;;;;;;;;;;;4994906;28;20802;-89
2022/04/05 16:40:21;;;;;;;;;;;;;;;;;;4978760;28;20255;-87
2022/04/05 16:42:48;;;;;;;;;;;;;;;;;;4978488;28;19941;-87
2022/04/05 16:45:16;;;;;;;;;;;;;;;;;;4995096;28;20004;-89
2022/04/05 16:47:43;;;;;;;;;;;;;;;;;;4978732;28;19968;-90
2022/04/05 16:50:12;;;;;;;;;;;;;;;;;;4978577;28;20271;-90
2022/04/05 16:52:40;;;;;;;;;;;;;;;;;;4978433;28;20297;-87
2022/04/05 16:55:07;;;;;;;;;;;;;;;;;;4978467;28;19929;-88